Time;durP1;ratioP1;P1;durP2;ratioP2;P2;SDS_P1;SDS_P2;PMS_P1;PMS_P2;Temp;Humidity;BMP_temperature;BMP_pressure;BME280_temperature;BME280_humidity;BME280_pressure;Samples;Min_cycle;Max_cycle;Signal;HPM_P1;HPM_P2
2024/04/08 00:00:11;;;;;;;5.30;3.05;;;;;;;11.65;53.41;94504.69;5025568;28;20034;-78
2024/04/08 00:02:36;;;;;;;10.60;2.08;;;;;;;11.61;53.41;94514.41;5025991;28;20323;-79
2024/04/08 00:05:01;;;;;;;7.05;2.10;;;;;;;11.58;53.71;94509.66;5025674;28;20093;-78
2024/04/08 00:07:27;;;;;;;5.72;1.73;;;;;;;11.58;53.74;94520.34;5025914;28;20025;-78
2024/04/08 00:09:52;;;;;;;13.10;2.20;;;;;;;11.63;53.96;94504.22;5025686;28;20022;-78
2024/04/08 00:12:18;;;;;;;6.82;1.95;;;;;;;11.62;54.44;94510.63;5025579;28;20181;-77
2024/04/08 00:14:43;;;;;;;6.15;2.20;;;;;;;11.59;54.57;94516.59;5025530;28;20049;-78
2024/04/08 00:17:08;;;;;;;11.05;1.73;;;;;;;11.62;54.47;94511.44;5025415;28;20093;-77
2024/04/08 00:19:34;;;;;;;5.60;1.60;;;;;;;11.58;54.76;94510.47;5025419;28;20230;-78
2024/04/08 00:21:59;;;;;;;5.78;1.90;;;;;;;11.43;55.09;94508.94;5025427;28;20052;-78
2024/04/08 00:24:24;;;;;;;4.32;2.00;;;;;;;11.40;55.47;94503.41;5025273;28;20033;-78
2024/04/08 00:26:50;;;;;;;3.47;1.63;;;;;;;11.40;55.28;94506.09;5025303;28;20100;-78
2024/04/08 00:29:15;;;;;;;7.45;1.90;;;;;;;11.36;55.58;94497.91;5025308;28;20032;-78
2024/04/08 00:31:40;;;;;;;6.38;2.30;;;;;;;11.37;55.29;94506.69;5025513;28;20255;-78
2024/04/08 00:34:06;;;;;;;7.18;1.70;;;;;;;11.34;55.54;94505.41;5025089;28;20097;-78
2024/04/08 00:36:31;;;;;;;9.23;2.03;;;;;;;11.37;55.39;94507.47;5023886;28;20060;-78
2024/04/08 00:38:56;;;;;;;5.75;2.63;;;;;;;11.30;55.61;94504.44;5025193;28;20204;-78
2024/04/08 00:41:22;;;;;;;5.47;1.42;;;;;;;11.28;55.57;94505.84;5025205;28;20037;-78
2024/04/08 00:43:47;;;;;;;4.15;1.48;;;;;;;11.30;55.63;94515.09;5025076;28;20030;-79
2024/04/08 00:46:31;;;;;;;6.00;1.45;;;;;;;11.28;55.68;94503.94;5024882;28;20036;-78
2024/04/08 00:48:57;;;;;;;5.20;1.90;;;;;;;11.25;55.89;94512.53;5025133;28;20093;-78
2024/04/08 00:51:23;;;;;;;7.20;2.00;;;;;;;11.24;55.93;94509.09;5025195;28;20026;-78
2024/04/08 00:53:49;;;;;;;4.93;1.58;;;;;;;11.16;56.04;94514.34;5024852;28;20025;-78
2024/04/08 00:56:18;;;;;;;6.10;2.28;;;;;;;11.09;56.17;94513.97;5024911;28;20423;-78
2024/04/08 00:58:44;;;;;;;3.95;1.52;;;;;;;11.07;56.54;94513.47;5024692;28;20040;-78
2024/04/08 01:01:15;;;;;;;6.70;1.58;;;;;;;11.02;56.67;94509.81;5024897;28;20040;-77
2024/04/08 01:03:42;;;;;;;4.28;1.45;;;;;;;10.98;56.65;94506.19;5024950;28;20227;-77
2024/04/08 01:06:08;;;;;;;5.38;1.30;;;;;;;10.93;56.87;94505.50;5024431;28;20026;-77
2024/04/08 01:08:34;;;;;;;4.57;1.52;;;;;;;10.93;56.84;94503.63;5024672;28;20028;-77
2024/04/08 01:10:59;;;;;;;3.35;1.60;;;;;;;10.93;57.00;94506.31;5023629;28;20057;-78
2024/04/08 01:13:25;;;;;;;5.32;1.55;;;;;;;10.90;57.26;94503.44;5024695;28;20030;-78
2024/04/08 01:15:50;;;;;;;6.68;1.98;;;;;;;10.82;57.63;94500.38;5024499;28;20065;-78
2024/04/08 01:18:16;;;;;;;3.63;1.77;;;;;;;10.77;58.01;94507.72;5024598;28;20061;-78
2024/04/08 01:20:41;;;;;;;15.23;1.92;;;;;;;10.75;57.89;94499.22;5024347;28;20219;-77
2024/04/08 01:23:12;;;;;;;7.20;2.08;;;;;;;10.70;57.86;94486.75;5023238;28;20193;-78
2024/04/08 01:25:38;;;;;;;5.70;1.73;;;;;;;10.73;57.83;94501.41;5024340;28;20029;-77
2024/04/08 01:28:03;;;;;;;4.55;1.50;;;;;;;10.76;57.69;94501.56;5024314;28;20026;-77
2024/04/08 01:30:30;;;;;;;5.10;1.70;;;;;;;10.77;58.42;94497.03;5024326;28;20391;-79
2024/04/08 01:32:55;;;;;;;5.32;1.55;;;;;;;10.73;58.29;94504.06;5023248;28;20029;-79
2024/04/08 01:35:20;;;;;;;4.78;1.80;;;;;;;10.76;58.11;94506.13;5024027;28;20105;-78
2024/04/08 01:37:46;;;;;;;2.88;1.20;;;;;;;10.74;57.90;94498.41;5023035;28;20062;-79
2024/04/08 01:40:12;;;;;;;6.13;1.40;;;;;;;10.71;57.99;94498.22;5024077;28;20041;-79
2024/04/08 01:42:37;;;;;;;5.57;1.42;;;;;;;10.70;58.02;94496.63;5023971;28;20022;-78
2024/04/08 01:45:03;;;;;;;4.32;1.73;;;;;;;10.69;58.14;94498.53;5024149;28;20157;-79
2024/04/08 01:47:28;;;;;;;6.75;1.73;;;;;;;10.67;58.36;94497.25;5023758;28;20209;-79
2024/04/08 01:49:54;;;;;;;5.07;1.75;;;;;;;10.61;58.13;94493.88;5023690;28;20148;-78
2024/04/08 01:52:19;;;;;;;4.35;1.67;;;;;;;10.59;58.52;94496.06;5023891;28;20217;-79
2024/04/08 01:54:45;;;;;;;4.63;1.70;;;;;;;10.59;58.82;94491.50;5023629;28;20045;-79
2024/04/08 01:57:10;;;;;;;4.53;1.90;;;;;;;10.55;58.95;94489.75;5023848;28;20026;-79
2024/04/08 01:59:35;;;;;;;3.80;1.90;;;;;;;10.51;59.41;94488.75;5023881;28;20402;-79
2024/04/08 02:02:01;;;;;;;5.30;1.33;;;;;;;10.55;58.65;94481.75;5023824;28;20040;-78
2024/04/08 02:04:26;;;;;;;5.57;1.50;;;;;;;10.47;58.66;94485.88;5023652;28;20324;-78
2024/04/08 02:06:51;;;;;;;6.18;1.67;;;;;;;10.45;58.92;94485.41;5023526;28;20136;-78
2024/04/08 02:09:17;;;;;;;4.72;1.65;;;;;;;10.41;59.31;94484.41;5023518;28;20331;-79
2024/04/08 02:11:42;;;;;;;3.38;1.52;;;;;;;10.30;59.51;94486.50;5023630;28;20037;-79
2024/04/08 02:14:08;;;;;;;3.58;1.50;;;;;;;10.27;59.81;94480.94;5055596;28;20075;-79
2024/04/08 02:16:33;;;;;;;3.20;1.30;;;;;;;10.24;59.64;94488.41;5023608;28;20036;-79
2024/04/08 02:18:58;;;;;;;3.60;1.20;;;;;;;10.21;59.95;94490.88;5023521;28;20093;-79
2024/04/08 02:21:24;;;;;;;6.60;1.70;;;;;;;10.20;60.09;94494.66;5023525;28;20026;-79
2024/04/08 02:23:49;;;;;;;5.72;1.40;;;;;;;10.19;60.02;94501.81;5023282;28;20405;-79
2024/04/08 02:26:15;;;;;;;2.75;1.23;;;;;;;10.21;60.61;94493.53;5023246;28;20108;-79
2024/04/08 02:28:40;;;;;;;2.60;1.40;;;;;;;10.09;60.93;94494.00;5022273;28;20224;-78
2024/04/08 02:31:05;;;;;;;4.47;1.60;;;;;;;10.09;61.10;94503.88;5021923;28;20080;-79
2024/04/08 02:33:31;;;;;;;4.57;1.90;;;;;;;10.03;61.00;94498.66;5023077;28;20049;-79
2024/04/08 02:36:06;;;;;;;4.57;2.15;;;;;;;10.04;61.13;94502.91;5023112;28;20061;-79
2024/04/08 02:38:32;;;;;;;5.47;1.30;;;;;;;10.01;60.94;94494.69;5023229;28;20276;-79
2024/04/08 02:40:58;;;;;;;4.80;1.70;;;;;;;9.99;60.72;94508.31;5023105;28;20033;-79
2024/04/08 02:43:23;;;;;;;3.80;1.58;;;;;;;9.99;60.73;94510.19;5023302;28;20033;-78
2024/04/08 02:45:49;;;;;;;3.60;1.58;;;;;;;10.02;60.57;94512.28;5021846;28;20318;-79
2024/04/08 02:48:15;;;;;;;2.58;1.40;;;;;;;10.06;60.69;94515.16;5023102;28;20041;-79
2024/04/08 02:50:41;;;;;;;8.70;1.60;;;;;;;10.05;60.77;94527.66;5023328;28;20052;-78
2024/04/08 02:53:07;;;;;;;3.13;1.50;;;;;;;10.03;60.70;94516.50;5021790;28;20022;-79
2024/04/08 02:55:33;;;;;;;4.88;1.70;;;;;;;10.03;60.70;94521.81;5021658;28;20045;-78
2024/04/08 02:57:58;;;;;;;4.38;1.90;;;;;;;10.02;61.18;94520.25;5023166;28;20113;-79
2024/04/08 03:00:24;;;;;;;3.40;1.60;;;;;;;9.99;60.88;94511.00;5025977;28;20037;-79
2024/04/08 03:02:49;;;;;;;3.13;1.52;;;;;;;9.98;61.61;94520.03;5026989;28;20022;-79
2024/04/08 03:05:15;;;;;;;8.57;1.85;;;;;;;9.95;61.23;94525.97;5026207;28;20022;-78
2024/04/08 03:07:40;;;;;;;5.15;2.03;;;;;;;9.92;61.14;94526.53;5024421;28;20052;-78
2024/04/08 03:10:06;;;;;;;5.65;1.45;;;;;;;9.90;61.32;94522.59;5025809;28;20021;-79
2024/04/08 03:12:31;;;;;;;8.30;2.33;;;;;;;9.83;61.41;94518.44;5025765;28;20020;-78
2024/04/08 03:14:57;;;;;;;6.82;2.13;;;;;;;9.80;61.44;94523.56;5026766;28;20025;-79
2024/04/08 03:17:23;;;;;;;10.95;1.75;;;;;;;9.74;61.93;94520.16;5026793;28;20307;-79
2024/04/08 03:19:55;;;;;;;7.63;2.05;;;;;;;9.70;62.02;94524.50;5026775;28;20335;-79
2024/04/08 03:22:21;;;;;;;2.75;1.52;;;;;;;9.64;62.62;94528.31;5026757;28;20363;-78
2024/04/08 03:24:47;;;;;;;8.10;1.90;;;;;;;9.64;62.67;94542.41;5026683;28;20022;-79
2024/04/08 03:27:12;;;;;;;8.25;1.95;;;;;;;9.60;62.86;94537.97;5026745;28;20033;-79
2024/04/08 03:29:38;;;;;;;8.75;2.10;;;;;;;9.53;62.89;94535.69;5026227;28;20041;-79
2024/04/08 03:32:03;;;;;;;7.15;2.00;;;;;;;9.47;63.12;94541.38;5026494;28;20065;-78
2024/04/08 03:34:31;;;;;;;8.55;1.80;;;;;;;9.39;63.53;94537.50;5026325;28;20021;-79
2024/04/08 03:36:57;;;;;;;4.53;1.80;;;;;;;9.36;63.67;94536.19;5026241;28;20391;-79
2024/04/08 03:39:22;;;;;;;6.63;1.80;;;;;;;9.36;63.96;94544.19;5026480;28;20029;-78
2024/04/08 03:41:50;;;;;;;7.93;2.40;;;;;;;9.35;63.66;94552.44;5026271;28;20026;-79
2024/04/08 03:44:15;;;;;;;8.20;2.00;;;;;;;9.32;63.99;94545.84;5026136;28;20049;-79
2024/04/08 03:46:40;;;;;;;7.10;2.25;;;;;;;9.28;64.42;94549.34;5026465;28;20304;-78
2024/04/08 03:49:06;;;;;;;8.65;1.92;;;;;;;9.29;64.33;94551.72;5026244;28;20068;-78
2024/04/08 03:51:31;;;;;;;4.72;1.80;;;;;;;9.25;64.65;94548.06;5026256;28;20029;-78
2024/04/08 03:53:57;;;;;;;7.75;2.38;;;;;;;9.22;64.65;94551.31;5026341;28;20030;-79
2024/04/08 03:56:22;;;;;;;8.70;2.28;;;;;;;9.18;65.01;94547.59;5026139;28;20022;-78
2024/04/08 03:58:47;;;;;;;10.43;2.15;;;;;;;9.16;64.92;94539.13;5026261;28;20022;-78
2024/04/08 04:01:13;;;;;;;5.05;2.05;;;;;;;9.18;64.87;94542.28;5026145;28;20021;-78
2024/04/08 04:03:38;;;;;;;8.73;2.25;;;;;;;9.19;64.85;94546.53;5026113;28;20084;-78
2024/04/08 04:06:04;;;;;;;11.75;2.17;;;;;;;9.17;64.78;94546.81;5025759;28;20029;-78
2024/04/08 04:08:30;;;;;;;3.38;1.55;;;;;;;9.20;64.69;94553.47;5025976;28;20075;-78
2024/04/08 04:10:56;;;;;;;6.45;2.08;;;;;;;9.18;64.27;94550.25;5024402;28;20316;-78
2024/04/08 04:13:22;;;;;;;4.15;1.77;;;;;;;9.18;64.61;94545.75;5025859;28;20196;-78
2024/04/08 04:15:47;;;;;;;7.07;1.83;;;;;;;9.14;64.71;94557.22;5025952;28;20044;-79
2024/04/08 04:18:13;;;;;;;16.58;3.10;;;;;;;9.16;64.88;94552.41;5025543;28;20271;-79
2024/04/08 04:20:40;;;;;;;6.07;2.58;;;;;;;9.20;64.75;94546.25;5025474;28;20324;-80
2024/04/08 04:23:06;;;;;;;5.53;1.73;;;;;;;9.21;64.76;94555.03;5025551;28;20022;-80
2024/04/08 04:25:31;;;;;;;5.10;1.85;;;;;;;9.19;64.95;94557.19;5025639;28;20322;-80
2024/04/08 04:27:57;;;;;;;6.47;1.98;;;;;;;9.22;64.25;94560.06;5026080;28;20025;-80
2024/04/08 04:30:23;;;;;;;2.90;1.50;;;;;;;9.28;64.15;94562.63;5025556;28;20064;-79
2024/04/08 04:32:48;;;;;;;3.40;1.42;;;;;;;9.33;63.93;94560.72;5025515;28;20106;-79
2024/04/08 04:35:14;;;;;;;8.23;1.88;;;;;;;9.38;63.96;94560.66;5025199;28;20051;-79
2024/04/08 04:37:39;;;;;;;4.72;1.52;;;;;;;9.37;63.92;94564.38;5025237;28;20030;-79
2024/04/08 04:40:07;;;;;;;12.07;2.55;;;;;;;9.33;64.55;94567.91;5024775;28;20319;-76
2024/04/08 04:42:33;;;;;;;5.03;2.17;;;;;;;9.38;64.71;94568.63;5024953;28;20029;-77
2024/04/08 04:44:58;;;;;;;7.82;2.40;;;;;;;9.35;65.08;94571.06;5025280;28;20136;-78
2024/04/08 04:47:24;;;;;;;15.23;2.90;;;;;;;9.38;65.14;94570.47;5024935;28;20093;-78
2024/04/08 04:49:49;;;;;;;12.07;3.15;;;;;;;9.42;65.40;94571.50;5025016;28;20036;-78
2024/04/08 04:52:14;;;;;;;8.07;1.83;;;;;;;9.49;64.88;94579.13;5023791;28;20064;-79
2024/04/08 04:54:40;;;;;;;6.68;2.55;;;;;;;9.59;64.14;94578.97;5025040;28;20042;-79
2024/04/08 04:57:05;;;;;;;4.60;1.90;;;;;;;9.63;63.74;94583.44;5025041;28;20041;-79
2024/04/08 04:59:31;;;;;;;6.10;2.05;;;;;;;9.76;63.23;94587.22;5024899;28;20022;-79
2024/04/08 05:01:57;;;;;;;6.90;2.30;;;;;;;9.87;63.24;94587.06;5024145;28;20056;-79
2024/04/08 05:04:22;;;;;;;10.15;2.63;;;;;;;9.98;63.05;94577.84;5024722;28;20107;-79
2024/04/08 05:06:47;;;;;;;5.70;2.25;;;;;;;10.06;62.89;94581.72;5024604;28;20240;-79
2024/04/08 05:09:13;;;;;;;13.23;2.55;;;;;;;10.10;62.55;94585.38;5024435;28;20025;-79
2024/04/08 05:11:39;;;;;;;9.38;2.90;;;;;;;10.19;62.18;94579.06;5024923;28;20014;-79
2024/04/08 05:14:04;;;;;;;9.60;2.97;;;;;;;10.30;61.96;94587.75;5024627;28;20216;-78
2024/04/08 05:16:31;;;;;;;11.15;2.55;;;;;;;10.42;61.99;94589.91;5024864;28;20018;-79
2024/04/08 05:18:56;;;;;;;19.40;2.08;;;;;;;10.52;62.21;94587.09;5023399;28;20044;-79
2024/04/08 05:21:22;;;;;;;5.30;2.13;;;;;;;10.61;61.50;94593.31;5023092;28;20022;-79
2024/04/08 05:23:50;;;;;;;11.02;3.25;;;;;;;10.69;61.61;94585.72;5023950;28;20037;-79
2024/04/08 05:26:16;;;;;;;8.60;3.03;;;;;;;10.77;61.12;94585.03;5024491;28;20041;-79
2024/04/08 05:28:42;;;;;;;14.07;3.00;;;;;;;10.87;60.47;94592.84;5023103;28;20018;-78
2024/04/08 05:31:07;;;;;;;11.82;3.20;;;;;;;10.90;61.25;94589.56;5024213;28;20036;-79
2024/04/08 05:33:33;;;;;;;21.77;3.08;;;;;;;10.98;61.28;94585.41;5024108;28;20388;-79
2024/04/08 05:35:59;;;;;;;10.48;2.92;;;;;;;11.05;61.42;94588.47;5024115;28;20066;-79
2024/04/08 05:38:24;;;;;;;9.43;3.92;;;;;;;11.13;60.61;94589.66;5024068;28;20022;-79
2024/04/08 05:40:50;;;;;;;13.95;3.38;;;;;;;11.26;60.63;94599.53;5023965;28;20108;-79
2024/04/08 05:43:15;;;;;;;14.85;3.50;;;;;;;11.26;60.24;94599.53;5024113;28;20026;-79
2024/04/08 05:45:42;;;;;;;13.35;2.67;;;;;;;11.38;59.96;94593.69;5023972;28;20030;-79
2024/04/08 05:48:08;;;;;;;7.40;2.80;;;;;;;11.48;59.21;94584.63;5024036;28;20071;-79
2024/04/08 05:50:33;;;;;;;18.58;3.83;;;;;;;11.56;59.53;94594.59;5023814;28;20248;-79
2024/04/08 05:52:59;;;;;;;26.23;4.15;;;;;;;11.58;59.35;94600.44;5024234;28;20021;-79
2024/04/08 05:55:25;;;;;;;23.75;5.15;;;;;;;11.68;59.17;94594.09;5024014;28;20029;-79
2024/04/08 05:57:50;;;;;;;19.88;5.38;;;;;;;11.78;59.26;94605.31;5023807;28;20227;-79
2024/04/08 06:00:18;;;;;;;13.35;3.63;;;;;;;11.85;58.90;94605.69;5023619;28;20092;-79
2024/04/08 06:02:49;;;;;;;23.55;4.50;;;;;;;11.95;58.76;94601.25;5023922;28;20025;-79
2024/04/08 06:05:19;;;;;;;31.45;4.68;;;;;;;12.03;58.55;94600.53;5023434;28;20302;-78
2024/04/08 06:07:48;;;;;;;10.57;3.15;;;;;;;12.14;57.93;94604.53;5023394;28;20029;-79
2024/04/08 06:10:18;;;;;;;16.48;3.78;;;;;;;12.27;57.44;94604.75;5023663;28;20341;-82
2024/04/08 06:12:43;;;;;;;16.67;2.80;;;;;;;12.41;57.03;94594.78;5023363;28;20018;-75
2024/04/08 06:15:09;;;;;;;18.95;2.83;;;;;;;12.54;56.94;94596.59;5023152;28;20029;-75
2024/04/08 06:17:34;;;;;;;9.38;1.88;;;;;;;12.70;56.43;94604.22;5022978;28;20219;-75
2024/04/08 06:20:01;;;;;;;5.10;1.65;;;;;;;12.82;56.40;94597.19;5023213;28;20072;-74
2024/04/08 06:22:27;;;;;;;8.65;1.52;;;;;;;12.94;56.43;94588.56;5023190;28;20032;-75
2024/04/08 06:24:52;;;;;;;7.90;1.65;;;;;;;13.07;56.15;94594.13;5023039;28;20041;-79
2024/04/08 06:27:18;;;;;;;4.72;2.05;;;;;;;13.20;56.62;94601.25;5023047;28;20323;-75
2024/04/08 06:29:43;;;;;;;6.00;1.95;;;;;;;13.35;56.15;94602.72;5022883;28;20051;-75
2024/04/08 06:32:08;;;;;;;7.55;2.00;;;;;;;13.45;56.07;94599.75;5022768;28;20101;-75
2024/04/08 06:34:34;;;;;;;9.32;2.13;;;;;;;13.58;55.73;94600.72;5022882;28;20022;-75
2024/04/08 06:37:01;;;;;;;5.53;1.73;;;;;;;13.55;53.77;94598.66;5022822;28;20391;-76
2024/04/08 06:39:27;;;;;;;10.75;2.30;;;;;;;13.62;53.21;94610.50;5022800;28;20038;-74
2024/04/08 06:41:52;;;;;;;7.50;2.03;;;;;;;13.69;53.58;94601.22;5022639;28;20018;-75
2024/04/08 06:44:18;;;;;;;12.93;2.30;;;;;;;13.71;54.10;94602.47;5021434;28;20090;-75
2024/04/08 06:46:43;;;;;;;6.00;2.40;;;;;;;13.75;54.02;94606.09;5022674;28;20032;-75
2024/04/08 06:49:09;;;;;;;25.25;2.63;;;;;;;13.80;53.83;94602.50;5022716;28;20034;-76
2024/04/08 06:51:35;;;;;;;11.95;3.10;;;;;;;13.78;53.49;94602.78;5022652;28;20022;-76
2024/04/08 06:54:00;;;;;;;12.00;3.33;;;;;;;13.85;53.56;94610.34;5022813;28;20029;-76
2024/04/08 06:56:26;;;;;;;6.93;2.78;;;;;;;13.83;53.23;94617.91;5022847;28;20018;-76
2024/04/08 06:58:51;;;;;;;14.13;4.38;;;;;;;13.83;53.32;94621.38;5022554;28;20084;-75
2024/04/08 07:01:17;;;;;;;10.25;2.72;;;;;;;13.94;53.22;94621.06;5022567;28;20092;-75
2024/04/08 07:03:42;;;;;;;7.32;2.90;;;;;;;14.04;52.47;94616.19;5022484;28;20097;-76
2024/04/08 07:06:08;;;;;;;10.52;3.03;;;;;;;14.09;52.56;94623.28;5022660;28;20029;-76
2024/04/08 07:08:34;;;;;;;13.98;2.55;;;;;;;14.08;52.07;94620.91;5022717;28;20057;-76
2024/04/08 07:11:00;;;;;;;4.78;2.08;;;;;;;14.11;52.23;94623.75;5022771;28;20061;-76
2024/04/08 07:13:26;;;;;;;12.40;2.80;;;;;;;14.18;52.17;94618.69;5022610;28;20038;-75
2024/04/08 07:15:58;;;;;;;8.57;2.45;;;;;;;14.31;52.08;94624.19;5022801;28;20038;-75
2024/04/08 07:18:24;;;;;;;11.30;2.22;;;;;;;14.37;52.09;94628.28;5022799;28;20264;-77
2024/04/08 07:20:49;;;;;;;19.30;2.88;;;;;;;14.45;52.73;94616.78;5022739;28;20050;-77
2024/04/08 07:23:15;;;;;;;7.85;2.55;;;;;;;14.55;51.80;94613.78;5022209;28;20045;-77
2024/04/08 07:25:40;;;;;;;6.20;2.50;;;;;;;14.64;50.69;94611.09;5022512;28;20067;-78
2024/04/08 07:28:06;;;;;;;12.10;2.70;;;;;;;14.78;50.81;94621.63;5022485;28;20026;-77
2024/04/08 07:30:31;;;;;;;18.25;3.25;;;;;;;14.88;50.23;94613.22;5022519;28;20030;-78
2024/04/08 07:32:57;;;;;;;5.60;2.55;;;;;;;14.93;49.41;94618.41;5022510;28;20033;-78
2024/04/08 07:35:23;;;;;;;18.45;3.00;;;;;;;15.03;49.53;94617.25;5022528;28;20048;-78
2024/04/08 07:37:48;;;;;;;8.20;2.13;;;;;;;15.12;48.74;94614.53;5022964;28;20101;-82
2024/04/08 07:40:17;;;;;;;5.82;1.80;;;;;;;15.20;48.07;94614.50;5023393;28;20327;-84
2024/04/08 07:42:42;;;;;;;11.48;1.83;;;;;;;15.30;47.25;94615.25;5023333;28;20022;-84
2024/04/08 07:45:08;;;;;;;4.43;2.13;;;;;;;15.43;46.89;94617.69;5024440;28;20076;-85
2024/04/08 07:47:34;;;;;;;8.05;1.90;;;;;;;15.54;46.40;94622.69;5027192;28;20026;-85
2024/04/08 07:49:59;;;;;;;9.55;2.03;;;;;;;15.63;46.32;94612.66;5027052;28;20030;-85
2024/04/08 07:52:26;;;;;;;5.05;2.65;;;;;;;15.70;46.39;94621.00;5025086;28;20026;-79
2024/04/08 07:54:52;;;;;;;4.78;1.98;;;;;;;15.77;45.57;94615.94;5026000;28;20033;-79
2024/04/08 07:57:18;;;;;;;17.70;1.98;;;;;;;15.83;45.49;94611.94;5026101;28;20212;-79
2024/04/08 07:59:43;;;;;;;8.32;1.77;;;;;;;15.93;45.13;94618.03;5025756;28;20024;-78
2024/04/08 08:02:09;;;;;;;5.70;2.00;;;;;;;16.00;44.72;94610.25;5025845;28;20018;-77
2024/04/08 08:04:34;;;;;;;15.23;2.17;;;;;;;16.08;44.57;94622.03;5025431;28;20312;-78
2024/04/08 08:06:59;;;;;;;11.13;1.90;;;;;;;16.16;44.42;94610.41;5024741;28;20029;-78
2024/04/08 08:09:25;;;;;;;8.02;1.90;;;;;;;16.22;44.48;94614.47;5024734;28;20375;-78
2024/04/08 08:11:50;;;;;;;8.88;1.50;;;;;;;16.30;43.86;94604.75;5024637;28;20033;-78
2024/04/08 08:14:46;;;;;;;2.53;1.45;;;;;;;16.39;42.87;94600.09;5024879;28;20093;-78
2024/04/08 08:17:11;;;;;;;5.93;1.60;;;;;;;16.42;42.76;94599.41;5018505;28;20041;-78
2024/04/08 08:19:37;;;;;;;5.93;1.90;;;;;;;16.48;43.32;94608.84;5023489;28;20396;-79
2024/04/08 08:22:06;;;;;;;9.88;1.55;;;;;;;16.61;43.17;94598.94;5024452;28;20372;-78
2024/04/08 08:24:32;;;;;;;6.90;1.88;;;;;;;16.64;42.48;94595.56;5023413;28;20025;-78
2024/04/08 08:26:57;;;;;;;6.15;2.00;;;;;;;16.64;42.43;94596.31;5023747;28;20022;-77
2024/04/08 08:29:22;;;;;;;5.75;1.38;;;;;;;16.74;42.54;94599.72;5023368;28;20277;-78
2024/04/08 08:31:48;;;;;;;17.58;1.52;;;;;;;16.63;41.77;94588.63;5023513;28;20025;-78
2024/04/08 08:34:13;;;;;;;7.00;1.45;;;;;;;16.54;41.55;94594.06;5023642;28;20128;-78
2024/04/08 08:36:39;;;;;;;8.55;1.50;;;;;;;16.55;41.04;94587.56;5023418;28;20038;-78
2024/04/08 08:39:04;;;;;;;7.85;1.45;;;;;;;16.65;41.65;94581.00;5056570;28;20053;-79
2024/04/08 08:41:30;;;;;;;8.07;2.00;;;;;;;16.80;41.93;94583.03;5025383;28;20105;-78
2024/04/08 08:44:00;;;;;;;10.40;1.90;;;;;;;16.90;40.49;94584.53;5025412;28;20053;-79
2024/04/08 08:46:27;;;;;;;8.40;1.33;;;;;;;17.00;40.98;94591.38;5025016;28;20089;-79
2024/04/08 08:48:56;;;;;;;3.97;1.33;;;;;;;17.11;39.35;94586.34;5025192;28;20034;-78
2024/04/08 08:51:22;;;;;;;6.90;1.63;;;;;;;17.22;38.92;94579.38;5024949;28;20097;-80
2024/04/08 08:53:47;;;;;;;5.82;1.63;;;;;;;17.31;39.00;94582.72;5024865;28;20018;-78
2024/04/08 08:56:17;;;;;;;24.23;2.13;;;;;;;17.35;38.96;94580.94;5024615;28;20347;-78
2024/04/08 08:58:47;;;;;;;6.65;1.50;;;;;;;17.41;39.39;94574.19;5024130;28;20085;-78
2024/04/08 09:01:15;;;;;;;9.18;1.50;;;;;;;17.55;37.66;94570.38;5024586;28;20026;-78
2024/04/08 09:03:42;;;;;;;4.13;1.33;;;;;;;17.68;36.21;94565.72;5024553;28;20022;-78
2024/04/08 09:06:10;;;;;;;8.18;1.20;;;;;;;17.69;35.95;94573.47;5024545;28;20033;-79
2024/04/08 09:08:35;;;;;;;5.43;1.00;;;;;;;17.78;36.22;94576.81;5024631;28;20021;-78
2024/04/08 09:11:06;;;;;;;5.30;0.82;;;;;;;17.94;36.24;94573.44;5024496;28;20060;-77
2024/04/08 09:13:32;;;;;;;4.60;1.48;;;;;;;17.99;36.40;94576.69;5024397;28;20029;-78
2024/04/08 09:15:58;;;;;;;3.50;1.23;;;;;;;18.05;36.60;94569.13;5024437;28;20017;-77
2024/04/08 09:18:23;;;;;;;5.82;1.42;;;;;;;18.10;35.07;94563.50;5024160;28;20139;-78
2024/04/08 09:20:49;;;;;;;4.80;1.45;;;;;;;18.15;34.67;94567.84;5024094;28;20030;-78
2024/04/08 09:23:14;;;;;;;11.75;1.08;;;;;;;18.21;34.76;94564.56;5024463;28;20085;-78
2024/04/08 09:25:40;;;;;;;4.65;1.27;;;;;;;18.28;34.24;94557.78;5024363;28;20040;-78
2024/04/08 09:28:08;;;;;;;2.88;1.13;;;;;;;18.37;34.20;94559.22;5024498;28;20255;-77
2024/04/08 09:30:34;;;;;;;10.18;0.80;;;;;;;18.35;33.15;94549.91;5024135;28;20025;-78
2024/04/08 09:33:00;;;;;;;2.47;0.85;;;;;;;18.36;33.82;94546.06;5024126;28;20317;-78
2024/04/08 09:36:52;;;;;;;4.18;0.90;;;;;;;18.48;33.08;94554.13;5557721;25;20347;-78
2024/04/08 09:39:19;;;;;;;1.88;0.68;;;;;;;18.58;33.54;94555.50;5558254;25;20009;-78
2024/04/08 09:41:45;;;;;;;1.42;0.57;;;;;;;18.61;32.97;94544.78;5557776;25;19985;-78
2024/04/08 09:44:13;;;;;;;1.60;0.73;;;;;;;18.53;32.00;94534.94;5525626;25;20192;-78
2024/04/08 09:46:42;;;;;;;2.35;0.80;;;;;;;18.61;32.81;94539.41;5557672;25;19981;-78
2024/04/08 09:49:11;;;;;;;8.07;0.80;;;;;;;18.68;32.46;94538.78;5557460;25;20140;-78
2024/04/08 09:51:40;;;;;;;4.93;0.70;;;;;;;18.77;31.36;94538.63;5557547;25;20239;-78
2024/04/08 09:54:07;;;;;;;2.75;0.70;;;;;;;18.78;30.66;94527.47;5557000;25;19993;-78
2024/04/08 09:56:39;;;;;;;7.78;1.17;;;;;;;18.81;31.53;94528.72;5557233;25;19992;-77
2024/04/08 09:59:05;;;;;;;5.83;0.70;;;;;;;18.91;31.48;94525.50;5557453;25;20038;-78
2024/04/08 10:01:31;;;;;;;2.80;0.70;;;;;;;18.92;31.78;94520.88;5557512;25;19981;-79
2024/04/08 10:04:02;;;;;;;6.55;1.02;;;;;;;19.02;31.29;94518.41;5525862;25;20009;-79
2024/04/08 10:06:29;;;;;;;5.25;0.82;;;;;;;19.08;31.33;94518.16;5557638;25;19995;-79
2024/04/08 10:08:55;;;;;;;2.03;0.80;;;;;;;19.22;31.55;94515.78;5557088;25;20010;-79
2024/04/08 10:11:21;;;;;;;2.10;0.77;;;;;;;19.30;30.65;94506.69;5525433;25;20166;-79
2024/04/08 10:13:48;;;;;;;7.97;0.90;;;;;;;19.31;30.87;94508.25;5557710;25;19985;-79
2024/04/08 10:16:15;;;;;;;0.82;0.57;;;;;;;19.38;32.22;94507.66;5525201;25;19985;-79
2024/04/08 10:18:46;;;;;;;2.38;0.80;;;;;;;19.39;31.48;94507.28;5557189;25;20208;-79
2024/04/08 10:21:14;;;;;;;6.60;0.80;;;;;;;19.40;31.31;94514.25;5557391;25;20180;-78
2024/04/08 10:23:39;;;;;;;3.22;0.70;;;;;;;19.45;30.63;94499.69;5557437;25;19985;-79
2024/04/08 10:26:09;;;;;;;3.58;0.82;;;;;;;19.35;30.81;94498.31;5525416;25;19982;-78
2024/04/08 10:28:40;;;;;;;1.67;0.80;;;;;;;19.55;31.83;94503.75;5557206;25;20080;-78
2024/04/08 10:31:05;;;;;;;1.95;0.80;;;;;;;19.69;30.88;94492.47;5556972;25;19989;-78
2024/04/08 10:33:31;;;;;;;1.95;0.80;;;;;;;19.76;30.15;94488.00;5557011;25;19989;-79
2024/04/08 10:35:56;;;;;;;4.35;0.90;;;;;;;19.82;30.76;94488.47;5556608;25;19996;-79
2024/04/08 10:38:21;;;;;;;3.30;0.90;;;;;;;19.95;31.30;94481.03;5557085;25;20033;-78
2024/04/08 10:40:47;;;;;;;11.77;1.30;;;;;;;20.01;31.11;94474.97;5556723;25;20096;-83
2024/04/08 10:43:12;;;;;;;3.13;1.00;;;;;;;20.10;30.36;94474.72;5588773;25;19992;-82
2024/04/08 10:45:39;;;;;;;9.57;0.68;;;;;;;19.91;30.61;94472.06;5558788;25;19992;-82
2024/04/08 10:48:10;;;;;;;9.40;1.10;;;;;;;20.06;31.64;94462.28;5540871;25;19993;-82
2024/04/08 10:50:36;;;;;;;3.28;0.85;;;;;;;20.14;31.19;94455.84;5541031;26;19995;-83
2024/04/08 10:53:02;;;;;;;8.02;0.88;;;;;;;20.27;31.52;94453.75;5540857;25;20189;-83
2024/04/08 10:55:27;;;;;;;2.53;1.02;;;;;;;20.44;31.72;94451.34;5541268;26;20136;-83
2024/04/08 10:57:53;;;;;;;6.72;1.00;;;;;;;20.56;30.91;94449.63;5540481;25;20017;-83
2024/04/08 11:00:18;;;;;;;8.20;1.42;;;;;;;20.69;31.35;94444.81;5509373;26;20017;-84
2024/04/08 11:02:44;;;;;;;1.73;0.70;;;;;;;20.82;30.65;94448.88;5540682;25;19989;-83
2024/04/08 11:05:12;;;;;;;3.28;0.98;;;;;;;20.92;29.89;94434.72;5540482;25;19989;-82
2024/04/08 11:07:38;;;;;;;3.45;0.90;;;;;;;21.02;30.86;94436.81;5540723;25;19996;-82
2024/04/08 11:10:10;;;;;;;2.55;0.90;;;;;;;21.09;30.37;94438.06;5540528;25;19994;-81
2024/04/08 11:12:36;;;;;;;3.42;0.63;;;;;;;21.17;29.61;94431.59;5508641;26;20043;-81
2024/04/08 11:15:03;;;;;;;6.75;0.70;;;;;;;21.17;29.61;94421.53;5539927;25;19994;-80
2024/04/08 11:17:28;;;;;;;8.05;0.80;;;;;;;21.26;29.90;94420.47;5540657;26;20058;-81
2024/04/08 11:19:59;;;;;;;6.78;1.10;;;;;;;21.40;30.53;94426.09;5508628;26;19997;-83
2024/04/08 11:22:26;;;;;;;2.13;0.85;;;;;;;21.49;29.76;94415.75;5508876;26;19985;-80
2024/04/08 11:24:53;;;;;;;19.67;0.80;;;;;;;21.62;29.55;94424.44;5540271;26;19997;-82
2024/04/08 11:27:19;;;;;;;5.05;1.13;;;;;;;21.74;29.42;94423.44;5508518;26;20009;-82
2024/04/08 11:29:44;;;;;;;2.05;0.80;;;;;;;21.82;29.96;94412.28;5540577;25;19992;-80